Time;durP1;ratioP1;P1;durP2;ratioP2;P2;SDS_P1;SDS_P2;PMS_P1;PMS_P2;Temp;Humidity;BMP_temperature;BMP_pressure;BME280_temperature;BME280_humidity;BME280_pressure;Samples;Min_cycle;Max_cycle;Signal;HPM_P1;HPM_P2
2023/01/06 00:01:30;;;;;;;13.23;5.17;;;;;;;9.71;100.00;101703.03;4829530;29;20395;-88
2023/01/06 00:04:00;;;;;;;10.37;4.83;;;;;;;9.68;100.00;101699.84;4826733;29;20070;-87
2023/01/06 00:06:29;;;;;;;12.40;5.27;;;;;;;9.68;100.00;101694.44;4820599;29;20763;-88
2023/01/06 00:08:57;;;;;;;12.37;5.50;;;;;;;9.69;100.00;101693.41;4828030;29;20090;-88
2023/01/06 00:11:23;;;;;;;10.97;5.30;;;;;;;9.71;100.00;101677.81;4828744;29;20037;-88
2023/01/06 00:13:49;;;;;;;9.77;5.03;;;;;;;9.68;100.00;101670.91;4828358;29;20037;-87
2023/01/06 00:16:17;;;;;;;11.37;5.03;;;;;;;9.73;100.00;101678.47;4841531;29;20403;-88
2023/01/06 00:18:43;;;;;;;10.40;5.40;;;;;;;9.73;100.00;101673.06;4831673;29;20034;-88
2023/01/06 00:21:09;;;;;;;11.53;5.00;;;;;;;9.78;100.00;101665.25;4829185;29;20049;-87
2023/01/06 00:23:35;;;;;;;11.77;5.40;;;;;;;9.76;100.00;101656.44;4828766;29;20042;-88
2023/01/06 00:26:01;;;;;;;12.00;5.30;;;;;;;9.76;100.00;101667.28;4828188;29;20048;-87
2023/01/06 00:28:27;;;;;;;13.33;6.17;;;;;;;9.81;100.00;101664.84;4828740;29;20053;-82
2023/01/06 00:30:53;;;;;;;11.80;5.40;;;;;;;9.84;100.00;101669.88;4827791;29;20057;-82
2023/01/06 00:33:18;;;;;;;10.37;5.60;;;;;;;9.76;100.00;101657.31;4827823;29;20038;-82
2023/01/06 00:35:44;;;;;;;9.73;5.00;;;;;;;9.81;100.00;101670.28;4828325;29;20046;-82
2023/01/06 00:38:10;;;;;;;11.33;5.47;;;;;;;9.86;100.00;101667.00;4825924;29;20045;-82
2023/01/06 00:40:36;;;;;;;10.83;5.03;;;;;;;9.90;100.00;101657.47;4825915;29;20030;-82
2023/01/06 00:43:01;;;;;;;10.07;5.30;;;;;;;9.86;100.00;101656.16;4828531;29;20592;-82
2023/01/06 00:45:27;;;;;;;8.63;4.60;;;;;;;9.86;100.00;101656.16;4827612;29;20065;-82
2023/01/06 00:47:52;;;;;;;8.13;4.37;;;;;;;9.90;100.00;101655.63;4826510;29;20124;-82
2023/01/06 00:50:18;;;;;;;8.73;3.90;;;;;;;9.92;100.00;101655.44;4826321;29;20775;-82
2023/01/06 00:52:43;;;;;;;7.83;3.80;;;;;;;9.87;100.00;101661.38;4826349;29;20049;-82
2023/01/06 00:55:08;;;;;;;9.57;3.83;;;;;;;9.91;100.00;101653.75;4827861;29;20246;-82
2023/01/06 00:57:34;;;;;;;7.97;3.60;;;;;;;9.89;100.00;101653.09;4825936;29;20045;-82
2023/01/06 00:59:59;;;;;;;8.47;3.80;;;;;;;9.85;100.00;101655.34;4826933;29;20053;-82
2023/01/06 01:02:24;;;;;;;9.23;3.37;;;;;;;9.90;100.00;101652.91;4811660;29;20050;-82
2023/01/06 01:04:50;;;;;;;9.87;3.50;;;;;;;9.92;100.00;101650.84;4827948;29;20186;-83
2023/01/06 01:07:15;;;;;;;8.37;3.37;;;;;;;9.86;100.00;101653.47;4826907;29;20115;-82
2023/01/06 01:09:41;;;;;;;7.13;3.43;;;;;;;9.89;100.00;101658.53;4827207;29;20033;-83
2023/01/06 01:12:11;;;;;;;8.23;3.60;;;;;;;9.86;100.00;101651.59;4827930;29;20690;-82
2023/01/06 01:14:49;;;;;;;7.60;3.70;;;;;;;9.93;100.00;101666.06;4826042;29;20045;-82
2023/01/06 01:17:20;;;;;;;7.90;4.30;;;;;;;9.93;100.00;101660.66;4827087;29;20041;-82
2023/01/06 01:19:46;;;;;;;10.40;4.90;;;;;;;9.90;100.00;101649.34;4827547;29;20095;-88
2023/01/06 01:22:12;;;;;;;8.27;4.07;;;;;;;9.94;100.00;101651.50;4827133;29;20050;-82
2023/01/06 01:24:37;;;;;;;5.40;4.00;;;;;;;9.90;100.00;101652.91;4825067;29;20053;-82
2023/01/06 01:27:03;;;;;;;7.60;3.83;;;;;;;9.92;100.00;101650.84;4827111;29;20038;-82
2023/01/06 01:29:29;;;;;;;9.87;4.20;;;;;;;9.93;100.00;101646.28;4826276;29;20034;-82
2023/01/06 01:31:54;;;;;;;10.10;4.57;;;;;;;9.91;100.00;101648.31;4827386;29;20060;-82
2023/01/06 01:34:21;;;;;;;9.93;4.70;;;;;;;9.94;100.00;101645.25;4809329;29;20498;-82
2023/01/06 01:36:47;;;;;;;8.03;4.17;;;;;;;9.93;100.00;101636.28;4827356;29;20410;-82
2023/01/06 01:39:15;;;;;;;9.53;4.33;;;;;;;9.90;100.00;101631.25;4827209;29;20041;-83
2023/01/06 01:41:40;;;;;;;7.27;4.30;;;;;;;9.87;100.00;101625.38;4826319;29;20098;-82
2023/01/06 01:44:43;;;;;;;9.17;3.77;;;;;;;9.90;100.00;101614.16;4826754;29;20049;-88
2023/01/06 01:47:11;;;;;;;7.43;3.97;;;;;;;9.79;100.00;101621.75;4827911;29;20048;-88
2023/01/06 01:49:39;;;;;;;5.93;3.43;;;;;;;9.83;100.00;101619.47;4825531;29;20905;-88
2023/01/06 01:52:07;;;;;;;9.10;4.00;;;;;;;9.77;100.00;101612.13;4827745;29;20041;-88
2023/01/06 01:54:34;;;;;;;7.33;3.70;;;;;;;9.86;100.00;101612.84;4840377;29;20714;-88
2023/01/06 01:57:41;;;;;;;8.13;3.63;;;;;;;9.89;100.00;101616.03;4826117;29;20103;-88
2023/01/06 02:00:07;;;;;;;8.00;3.30;;;;;;;9.84;100.00;101618.47;4828879;29;20113;-87
2023/01/06 02:02:33;;;;;;;8.40;3.30;;;;;;;9.82;100.00;101609.72;4828692;29;20077;-88
2023/01/06 02:04:59;;;;;;;7.10;3.13;;;;;;;9.82;100.00;101607.00;4828013;29;20136;-87
2023/01/06 02:07:26;;;;;;;7.13;2.63;;;;;;;9.88;100.00;101606.22;4825642;29;20103;-82
2023/01/06 02:10:12;;;;;;;7.93;3.00;;;;;;;9.80;100.00;101601.78;4825654;29;20046;-83
2023/01/06 02:12:38;;;;;;;6.47;2.83;;;;;;;9.83;100.00;101603.25;4826159;29;20074;-82
2023/01/06 02:15:31;;;;;;;5.77;2.57;;;;;;;9.89;100.00;101617.91;4824222;29;20450;-88
2023/01/06 02:18:08;;;;;;;8.20;2.50;;;;;;;9.87;100.00;101607.25;4817565;29;20510;-88
2023/01/06 02:20:57;;;;;;;6.50;2.70;;;;;;;9.83;100.00;101603.25;4828920;29;20167;-83
2023/01/06 02:23:23;;;;;;;6.87;2.30;;;;;;;9.86;100.00;101591.19;4826754;29;20033;-82
2023/01/06 02:26:06;;;;;;;6.07;2.10;;;;;;;9.81;100.00;101602.59;4824640;29;20456;-82
2023/01/06 02:28:59;;;;;;;5.33;2.20;;;;;;;9.84;100.00;101593.28;4824130;29;20037;-82
2023/01/06 02:31:42;;;;;;;6.53;2.27;;;;;;;9.87;100.00;101592.88;4826620;29;20062;-82
2023/01/06 02:34:45;;;;;;;5.77;2.30;;;;;;;9.88;100.00;101595.41;4824796;29;20034;-82
2023/01/06 02:37:27;;;;;;;6.70;2.30;;;;;;;9.86;100.00;101573.13;4824615;29;20233;-88
2023/01/06 02:40:23;;;;;;;6.27;2.40;;;;;;;9.85;100.00;101576.00;4826763;29;20539;-87
2023/01/06 02:43:19;;;;;;;5.20;2.03;;;;;;;9.79;100.00;101567.63;4827567;29;20042;-88
2023/01/06 02:46:06;;;;;;;4.00;1.87;;;;;;;9.85;100.00;101566.00;4827820;29;20049;-87
2023/01/06 02:48:37;;;;;;;5.60;2.10;;;;;;;9.83;100.00;101559.94;4824624;29;20649;-87
2023/01/06 02:51:12;;;;;;;5.23;2.07;;;;;;;9.86;100.00;101562.28;4827603;29;20045;-88
2023/01/06 02:54:28;;;;;;;7.63;1.97;;;;;;;9.85;100.00;101551.66;4829702;29;20050;-88
2023/01/06 02:57:11;;;;;;;3.77;1.80;;;;;;;9.84;100.00;101553.50;4796683;29;20176;-88
2023/01/06 02:59:44;;;;;;;5.40;1.90;;;;;;;9.85;100.00;101541.66;4796209;29;20840;-87
2023/01/06 03:02:10;;;;;;;8.40;2.43;;;;;;;9.89;100.00;101553.78;4816319;29;20513;-82
2023/01/06 03:04:41;;;;;;;2.90;1.73;;;;;;;9.85;100.00;101549.78;4826395;29;20046;-83
2023/01/06 03:07:08;;;;;;;6.17;1.80;;;;;;;9.87;100.00;101539.56;4825534;29;20458;-82
2023/01/06 03:09:36;;;;;;;4.53;1.70;;;;;;;9.89;100.00;101548.38;4825243;29;20050;-82
2023/01/06 03:12:07;;;;;;;5.80;1.83;;;;;;;9.89;100.00;101545.66;4825529;29;20149;-87
2023/01/06 03:14:42;;;;;;;7.33;1.73;;;;;;;9.95;100.00;101546.75;4824610;29;20063;-83
2023/01/06 03:17:07;;;;;;;5.63;1.70;;;;;;;9.93;100.00;101538.84;4825632;29;20121;-82
2023/01/06 03:19:33;;;;;;;4.43;1.80;;;;;;;9.93;100.00;101538.00;4825841;29;20041;-82
2023/01/06 03:22:00;;;;;;;4.87;1.70;;;;;;;9.93;100.00;101530.72;4826259;29;20401;-82
2023/01/06 03:24:26;;;;;;;4.20;1.80;;;;;;;9.99;100.00;101525.56;4825515;29;20038;-87
2023/01/06 03:26:52;;;;;;;4.40;1.93;;;;;;;10.00;100.00;101529.97;4831978;29;20038;-88
2023/01/06 03:29:19;;;;;;;3.67;1.80;;;;;;;10.01;100.00;101528.91;4827088;29;20037;-87
2023/01/06 03:32:03;;;;;;;4.57;1.73;;;;;;;9.99;100.00;101520.97;4824794;29;20111;-88
2023/01/06 03:34:53;;;;;;;5.23;2.00;;;;;;;10.06;100.00;101532.75;4825317;29;20040;-82
2023/01/06 03:37:57;;;;;;;5.07;2.07;;;;;;;10.05;100.00;101522.94;4824046;29;20548;-82
2023/01/06 03:40:34;;;;;;;6.87;2.03;;;;;;;10.02;100.00;101501.63;4828951;29;20037;-82
2023/01/06 03:43:24;;;;;;;4.10;2.00;;;;;;;9.97;100.00;101499.53;4829086;29;20041;-82
2023/01/06 03:46:23;;;;;;;3.70;1.90;;;;;;;9.96;100.00;101488.88;4833580;29;20470;-82
2023/01/06 03:49:10;;;;;;;5.87;2.50;;;;;;;9.95;100.00;101504.31;4828563;29;20054;-82
2023/01/06 03:51:56;;;;;;;6.30;2.50;;;;;;;9.99;100.00;101510.16;4828467;29;20071;-82
2023/01/06 03:54:38;;;;;;;3.17;1.67;;;;;;;10.03;100.00;101516.88;4829409;29;20065;-83
2023/01/06 03:57:09;;;;;;;4.27;1.70;;;;;;;9.99;100.00;101520.16;4842600;29;20132;-82
2023/01/06 03:59:40;;;;;;;6.57;2.30;;;;;;;10.00;100.00;101511.00;4827627;29;20633;-82
2023/01/06 04:02:06;;;;;;;7.33;2.30;;;;;;;9.95;100.00;101515.13;4828495;29;20570;-82
2023/01/06 04:04:31;;;;;;;8.47;3.00;;;;;;;9.93;100.00;101511.75;4815463;29;20045;-83
2023/01/06 04:06:57;;;;;;;3.97;2.13;;;;;;;10.01;100.00;101496.41;4815464;29;20033;-82
2023/01/06 04:09:22;;;;;;;6.77;3.20;;;;;;;9.94;100.00;101497.22;4826736;29;20041;-82
2023/01/06 04:14:32;;;;;;;5.57;2.42;;;;;;;10.00;100.00;101484.75;4828527;29;20074;-82
2023/01/06 04:16:57;;;;;;;7.10;3.07;;;;;;;10.01;100.00;101489.16;4799424;29;20708;-82
2023/01/06 04:19:22;;;;;;;6.03;2.30;;;;;;;10.06;100.00;101488.56;4828822;29;21429;-88
2023/01/06 04:21:48;;;;;;;5.67;2.70;;;;;;;10.03;100.00;101470.84;4826754;29;20045;-88
2023/01/06 04:24:13;;;;;;;7.77;2.73;;;;;;;10.07;100.00;101479.41;4827488;29;20033;-88
2023/01/06 04:26:38;;;;;;;4.83;2.47;;;;;;;10.07;100.00;101449.63;4826815;29;20095;-88
2023/01/06 04:29:04;;;;;;;7.07;2.90;;;;;;;10.07;100.00;101455.88;4828761;29;20791;-88
2023/01/06 04:31:29;;;;;;;6.57;2.83;;;;;;;10.02;100.00;101454.78;4828799;29;20608;-88
2023/01/06 04:33:55;;;;;;;4.40;2.50;;;;;;;10.04;100.00;101458.97;4827634;29;20039;-88
2023/01/06 04:36:20;;;;;;;6.07;3.17;;;;;;;10.08;100.00;101444.03;4828697;29;20039;-87
2023/01/06 04:38:46;;;;;;;6.10;2.63;;;;;;;10.04;100.00;101441.91;4830617;29;20034;-88
2023/01/06 04:41:11;;;;;;;6.63;3.00;;;;;;;10.07;100.00;101446.94;4828814;29;20599;-88
2023/01/06 04:43:37;;;;;;;4.77;2.30;;;;;;;10.13;100.00;101440.72;4827459;29;20046;-88
2023/01/06 04:46:03;;;;;;;7.90;2.43;;;;;;;10.05;100.00;101444.44;4827439;29;20045;-88
2023/01/06 04:48:28;;;;;;;4.90;2.30;;;;;;;10.06;100.00;101415.47;4827904;29;20033;-88
2023/01/06 04:51:05;;;;;;;6.67;2.20;;;;;;;10.10;100.00;101433.00;4827937;29;20064;-88
2023/01/06 04:53:35;;;;;;;8.23;2.70;;;;;;;10.11;100.00;101431.97;4828767;29;20219;-88
2023/01/06 04:56:11;;;;;;;5.30;2.70;;;;;;;10.13;100.00;101435.31;4828154;29;20034;-88
2023/01/06 04:58:37;;;;;;;10.57;3.00;;;;;;;10.07;100.00;101407.16;4828134;29;20030;-88
2023/01/06 05:01:08;;;;;;;6.27;2.33;;;;;;;10.08;100.00;101427.78;4830024;29;20065;-88
2023/01/06 05:03:34;;;;;;;4.27;1.77;;;;;;;10.07;100.00;101441.50;4826988;29;20035;-88
2023/01/06 05:06:01;;;;;;;2.37;1.20;;;;;;;10.13;100.00;101425.34;4828513;29;20034;-88
2023/01/06 05:08:28;;;;;;;2.20;1.27;;;;;;;10.09;100.00;101425.91;4826674;29;20044;-87
2023/01/06 05:11:02;;;;;;;4.83;1.40;;;;;;;10.01;100.00;101418.78;4826837;29;20037;-88
2023/01/06 05:13:30;;;;;;;2.00;1.25;;;;;;;10.05;100.00;101422.75;4827408;29;20379;-88
2023/01/06 05:15:55;;;;;;;5.00;1.80;;;;;;;10.09;100.00;101401.53;4828296;29;20148;-87
2023/01/06 05:18:21;;;;;;;3.37;1.57;;;;;;;10.12;100.00;101404.69;4815357;29;20129;-88
2023/01/06 05:20:53;;;;;;;3.70;1.33;;;;;;;10.11;100.00;101402.19;4833828;29;20042;-88
2023/01/06 05:23:20;;;;;;;3.10;1.43;;;;;;;10.13;100.00;101403.66;4828365;29;20453;-88
2023/01/06 05:25:45;;;;;;;3.50;1.43;;;;;;;10.09;100.00;101404.25;4814362;29;20415;-88
2023/01/06 05:28:12;;;;;;;3.63;1.50;;;;;;;10.09;100.00;101398.81;4828896;29;20125;-88
2023/01/06 05:30:38;;;;;;;2.10;1.30;;;;;;;10.11;100.00;101399.47;4827766;29;20065;-88
2023/01/06 05:33:03;;;;;;;3.00;1.40;;;;;;;10.14;100.00;101391.81;4827061;29;20452;-82
2023/01/06 05:35:29;;;;;;;3.37;1.50;;;;;;;10.05;100.00;101416.50;4825531;29;20029;-82
2023/01/06 05:37:54;;;;;;;2.20;1.20;;;;;;;10.10;100.00;101403.22;4798155;29;20034;-82
2023/01/06 05:40:20;;;;;;;2.77;1.20;;;;;;;10.11;100.00;101410.31;4811604;29;20044;-82
2023/01/06 05:42:45;;;;;;;4.10;1.50;;;;;;;10.11;100.00;101389.47;4825649;29;20168;-82
2023/01/06 05:45:10;;;;;;;4.97;1.83;;;;;;;10.07;100.00;101398.19;4797629;29;20577;-82
2023/01/06 05:47:36;;;;;;;2.63;1.30;;;;;;;10.07;100.00;101399.03;4826179;29;20044;-87
2023/01/06 05:50:02;;;;;;;2.67;1.30;;;;;;;10.12;100.00;101395.75;4827531;29;20034;-88
2023/01/06 05:52:27;;;;;;;2.87;1.20;;;;;;;10.09;100.00;101388.00;4814601;29;20029;-87
2023/01/06 05:54:52;;;;;;;3.77;1.30;;;;;;;10.18;100.00;101410.38;4826098;29;21606;-82
2023/01/06 05:57:18;;;;;;;3.00;1.57;;;;;;;10.12;100.00;101426.34;4810593;29;20124;-82
2023/01/06 05:59:43;;;;;;;1.73;1.40;;;;;;;10.10;100.00;101409.50;4812766;29;20382;-82
2023/01/06 06:02:09;;;;;;;2.77;1.30;;;;;;;10.10;100.00;101414.03;4812932;29;20217;-82
2023/01/06 06:04:34;;;;;;;2.03;1.33;;;;;;;10.14;100.00;101437.84;4826514;29;20064;-82
2023/01/06 06:06:59;;;;;;;1.93;1.20;;;;;;;10.14;100.00;101437.84;4826573;29;20067;-82
2023/01/06 06:09:25;;;;;;;2.47;1.20;;;;;;;10.11;100.00;101431.97;4824350;29;20042;-82
2023/01/06 06:11:53;;;;;;;2.43;1.17;;;;;;;10.11;100.00;101426.56;4826625;29;20042;-82
2023/01/06 06:14:18;;;;;;;3.07;1.40;;;;;;;10.11;100.00;101435.50;4826934;29;20050;-82
2023/01/06 06:16:43;;;;;;;2.10;1.47;;;;;;;10.06;100.00;101408.19;4826269;29;20525;-83
2023/01/06 06:19:11;;;;;;;2.40;1.37;;;;;;;10.03;100.00;101418.56;4826074;29;20034;-82
2023/01/06 06:21:36;;;;;;;3.03;1.40;;;;;;;9.96;100.00;101403.09;4826935;29;20705;-82
2023/01/06 06:24:02;;;;;;;4.20;1.50;;;;;;;9.95;100.00;101428.50;4825178;29;20030;-83
2023/01/06 06:26:28;;;;;;;2.73;1.43;;;;;;;9.91;100.00;101410.97;4825536;29;20037;-82
2023/01/06 06:28:53;;;;;;;4.90;1.70;;;;;;;10.02;100.00;101414.19;4826229;29;20075;-83
2023/01/06 06:31:22;;;;;;;3.23;1.50;;;;;;;10.02;100.00;101417.72;4825290;29;20061;-82
2023/01/06 06:33:55;;;;;;;1.67;1.50;;;;;;;10.00;100.00;101413.56;4826313;29;20270;-83
2023/01/06 06:36:21;;;;;;;2.65;1.85;;;;;;;10.02;100.00;101400.66;4826493;29;21635;-82
2023/01/06 06:38:49;;;;;;;2.90;1.43;;;;;;;10.02;100.00;101416.88;4839800;29;20042;-82
2023/01/06 06:41:14;;;;;;;2.57;1.37;;;;;;;9.96;100.00;101408.50;4825846;29;20037;-82
2023/01/06 06:43:40;;;;;;;4.47;1.30;;;;;;;10.11;100.00;101421.13;4824412;29;21498;-82
2023/01/06 06:46:06;;;;;;;2.70;1.43;;;;;;;10.05;100.00;101389.41;4826170;29;20048;-82
2023/01/06 06:48:32;;;;;;;2.80;1.90;;;;;;;10.03;100.00;101415.88;4825456;29;20046;-82
2023/01/06 06:51:05;;;;;;;2.17;1.50;;;;;;;10.02;100.00;101409.59;4812125;29;20040;-82
2023/01/06 06:53:32;;;;;;;3.57;1.50;;;;;;;9.96;100.00;101413.91;4830440;29;20486;-82
2023/01/06 06:55:57;;;;;;;4.00;1.70;;;;;;;9.91;100.00;101416.41;4825391;29;20046;-82
2023/01/06 06:58:23;;;;;;;3.03;1.70;;;;;;;9.91;100.00;101427.22;4839218;29;20050;-82
2023/01/06 07:00:49;;;;;;;1.83;1.73;;;;;;;9.88;100.00;101421.34;4827140;29;20687;-82
2023/01/06 07:03:14;;;;;;;3.77;1.90;;;;;;;9.88;100.00;101424.06;4826482;29;20119;-82
2023/01/06 07:05:42;;;;;;;3.80;1.50;;;;;;;9.85;100.00;101425.28;4824945;29;20124;-82
2023/01/06 07:08:08;;;;;;;3.30;1.90;;;;;;;9.70;100.00;101427.22;4839842;29;20115;-83
2023/01/06 07:10:33;;;;;;;5.57;1.93;;;;;;;9.73;100.00;101434.94;4825793;29;20033;-82
2023/01/06 07:12:58;;;;;;;2.07;1.70;;;;;;;9.66;100.00;101451.09;4828364;29;20046;-82
2023/01/06 07:15:24;;;;;;;2.23;1.93;;;;;;;9.66;100.00;101447.56;4828175;29;20061;-82
2023/01/06 07:17:49;;;;;;;2.93;2.00;;;;;;;9.62;100.00;101450.63;4829901;29;20038;-82
2023/01/06 07:20:15;;;;;;;3.93;2.10;;;;;;;9.60;100.00;101446.44;4842523;29;20048;-82
2023/01/06 07:22:40;;;;;;;4.70;2.17;;;;;;;9.54;100.00;101436.38;4829163;29;20041;-82
2023/01/06 07:25:07;;;;;;;4.00;2.20;;;;;;;9.43;100.00;101441.25;4828125;29;20053;-82
2023/01/06 07:27:33;;;;;;;6.17;2.40;;;;;;;9.41;100.00;101447.88;4828235;29;20448;-82
2023/01/06 07:29:59;;;;;;;4.50;2.20;;;;;;;9.33;100.00;101447.97;4827370;29;21505;-82
2023/01/06 07:32:24;;;;;;;5.40;2.43;;;;;;;9.33;100.00;101434.44;4829453;29;20756;-82
2023/01/06 07:34:49;;;;;;;3.07;2.17;;;;;;;9.24;100.00;101453.50;4828674;29;20065;-82
2023/01/06 07:37:15;;;;;;;5.63;2.73;;;;;;;9.30;100.00;101451.91;4827451;29;20038;-82
2023/01/06 07:39:40;;;;;;;4.37;2.60;;;;;;;9.31;100.00;101461.69;4843916;29;20698;-82
2023/01/06 07:42:09;;;;;;;3.70;2.67;;;;;;;9.24;100.00;101448.09;4830134;29;20038;-82
2023/01/06 07:44:35;;;;;;;3.67;2.80;;;;;;;9.25;100.00;101457.88;4835318;29;20487;-82
2023/01/06 07:47:00;;;;;;;5.03;3.10;;;;;;;9.20;100.00;101457.59;4833375;29;20045;-82
2023/01/06 07:49:26;;;;;;;3.80;2.60;;;;;;;9.18;100.00;101454.25;4836338;29;20543;-82
2023/01/06 07:51:51;;;;;;;4.00;2.80;;;;;;;9.20;100.00;101456.78;4831486;29;20505;-82
2023/01/06 07:54:16;;;;;;;3.77;3.00;;;;;;;9.26;100.00;101456.84;4829206;29;20048;-82
2023/01/06 07:56:42;;;;;;;2.97;2.40;;;;;;;9.28;100.00;101462.06;4833892;29;20153;-82
2023/01/06 07:59:08;;;;;;;3.30;2.50;;;;;;;9.29;100.00;101464.59;4829509;29;20444;-87
2023/01/06 08:01:34;;;;;;;5.97;2.77;;;;;;;9.26;100.00;101481.19;4828935;29;20030;-88
2023/01/06 08:03:59;;;;;;;3.30;2.97;;;;;;;9.28;100.00;101479.13;4829119;29;20052;-82
2023/01/06 08:06:24;;;;;;;4.20;2.93;;;;;;;9.26;100.00;101488.44;4824347;29;20170;-82
2023/01/06 08:08:50;;;;;;;5.60;3.20;;;;;;;9.28;100.00;101491.81;4831655;29;20046;-82
2023/01/06 08:11:16;;;;;;;4.43;3.33;;;;;;;9.21;100.00;101486.31;4831450;29;20514;-82
2023/01/06 08:13:41;;;;;;;5.50;3.30;;;;;;;9.17;100.00;101482.31;4835328;29;20394;-82
2023/01/06 08:16:08;;;;;;;4.30;3.10;;;;;;;9.21;100.00;101490.91;4832629;29;20062;-82
2023/01/06 08:18:34;;;;;;;3.53;3.20;;;;;;;9.21;100.00;101488.19;4832327;29;20034;-82
2023/01/06 08:21:06;;;;;;;4.33;3.20;;;;;;;9.29;100.00;101490.81;4835331;29;20493;-82
2023/01/06 08:23:32;;;;;;;3.77;3.17;;;;;;;9.26;100.00;101485.75;4831552;29;20046;-82
2023/01/06 08:26:13;;;;;;;3.93;3.13;;;;;;;9.32;100.00;101497.69;4834107;29;20041;-82
2023/01/06 08:28:39;;;;;;;4.37;3.50;;;;;;;9.29;100.00;101505.16;4835085;29;20060;-82
2023/01/06 08:31:09;;;;;;;4.07;3.67;;;;;;;9.35;100.00;101518.97;4832049;29;20064;-82
2023/01/06 08:33:35;;;;;;;4.57;3.33;;;;;;;9.35;100.00;101527.06;4836235;29;20120;-82
2023/01/06 08:36:03;;;;;;;4.80;4.07;;;;;;;9.38;100.00;101530.22;4832930;29;20117;-82
2023/01/06 08:38:30;;;;;;;5.40;4.40;;;;;;;9.49;100.00;101539.72;4835594;29;20037;-82
2023/01/06 08:40:56;;;;;;;4.83;4.37;;;;;;;9.53;100.00;101537.50;4834209;29;20053;-82
2023/01/06 08:43:23;;;;;;;4.50;4.10;;;;;;;9.56;100.00;101546.09;4833733;29;20054;-82
2023/01/06 08:45:49;;;;;;;5.23;4.50;;;;;;;9.61;100.00;101549.06;4826818;29;20037;-84
2023/01/06 08:48:15;;;;;;;5.30;4.63;;;;;;;9.65;100.00;101545.97;4831509;29;20391;-88
2023/01/06 08:50:41;;;;;;;5.70;4.80;;;;;;;9.67;100.00;101546.63;4839077;29;20033;-88
2023/01/06 08:53:08;;;;;;;5.23;4.73;;;;;;;9.72;100.00;101549.59;4836703;29;20033;-87
2023/01/06 08:55:40;;;;;;;5.37;4.87;;;;;;;9.72;100.00;101552.31;4836712;29;20034;-88
2023/01/06 08:58:06;;;;;;;6.53;5.20;;;;;;;9.74;100.00;101555.69;4815228;29;20111;-88
2023/01/06 09:00:31;;;;;;;6.43;5.47;;;;;;;9.75;100.00;101565.47;4827302;29;20037;-88
2023/01/06 09:02:57;;;;;;;6.37;5.77;;;;;;;9.82;100.00;101552.88;4828736;29;20411;-88
2023/01/06 09:05:22;;;;;;;7.13;6.17;;;;;;;9.85;100.00;101552.47;4828571;29;20520;-88
2023/01/06 09:07:51;;;;;;;6.80;6.20;;;;;;;9.86;100.00;101561.44;4834448;29;20122;-88
2023/01/06 09:10:18;;;;;;;6.60;6.00;;;;;;;9.86;100.00;101566.84;4828859;29;20065;-87
2023/01/06 09:12:43;;;;;;;6.37;5.83;;;;;;;9.91;100.00;101564.41;4841979;29;20037;-82
2023/01/06 09:15:09;;;;;;;6.33;5.83;;;;;;;9.87;100.00;101571.22;4829566;29;20041;-82
2023/01/06 09:17:34;;;;;;;7.00;6.30;;;;;;;9.98;100.00;101573.44;4829825;29;20038;-82
2023/01/06 09:20:00;;;;;;;7.10;6.40;;;;;;;9.94;100.00;101572.16;4828979;29;20074;-82
2023/01/06 09:22:25;;;;;;;6.97;6.37;;;;;;;9.95;100.00;101568.41;4831310;29;20043;-82
2023/01/06 09:24:51;;;;;;;7.23;6.53;;;;;;;9.94;100.00;101573.00;4837008;29;21123;-82
2023/01/06 09:27:16;;;;;;;7.40;6.00;;;;;;;10.09;100.00;101580.22;4829581;29;20033;-82
2023/01/06 09:29:42;;;;;;;7.00;6.40;;;;;;;10.26;100.00;101589.81;4827665;29;20041;-83
2023/01/06 09:32:08;;;;;;;6.90;6.10;;;;;;;10.37;100.00;101590.38;4826376;29;20041;-83
2023/01/06 09:34:33;;;;;;;6.20;5.60;;;;;;;10.40;100.00;101598.13;4825994;29;20102;-83
2023/01/06 09:36:59;;;;;;;9.87;6.00;;;;;;;10.38;100.00;101605.63;4826937;29;20037;-82
2023/01/06 09:39:24;;;;;;;6.43;5.83;;;;;;;10.36;100.00;101613.91;4825503;29;20744;-83
2023/01/06 09:42:04;;;;;;;7.03;5.97;;;;;;;10.39;100.00;101618.09;4824822;29;20712;-82
2023/01/06 09:44:42;;;;;;;7.27;6.03;;;;;;;10.35;100.00;101616.81;4826847;29;20081;-83
2023/01/06 09:47:10;;;;;;;6.07;5.47;;;;;;;10.38;100.00;101621.88;4826364;29;20658;-88
2023/01/06 09:49:46;;;;;;;6.17;5.60;;;;;;;10.50;100.00;101624.88;4827021;29;20073;-88
2023/01/06 09:52:21;;;;;;;7.00;5.80;;;;;;;10.45;100.00;101634.44;4824809;29;20775;-83
2023/01/06 09:54:52;;;;;;;7.80;5.90;;;;;;;10.42;100.00;101639.41;4833256;29;20082;-83
2023/01/06 09:57:42;;;;;;;9.37;5.97;;;;;;;10.45;100.00;101642.56;4835106;29;20037;-83
2023/01/06 10:00:30;;;;;;;10.23;6.40;;;;;;;10.47;100.00;101645.94;4838150;29;20057;-88
2023/01/06 10:02:56;;;;;;;6.63;6.03;;;;;;;10.39;100.00;101639.78;4847982;29;20085;-88
2023/01/06 10:05:22;;;;;;;6.27;5.67;;;;;;;10.38;100.00;101633.53;4841804;29;20064;-88
2023/01/06 10:08:02;;;;;;;8.33;5.70;;;;;;;10.40;100.00;101636.03;4850492;29;20054;-88
2023/01/06 10:10:36;;;;;;;8.07;5.73;;;;;;;10.40;100.00;101634.19;4851249;29;20038;-88
2023/01/06 10:13:39;;;;;;;6.47;5.55;;;;;;;10.45;100.00;101641.72;4835795;29;20038;-88
2023/01/06 10:16:33;;;;;;;8.17;5.30;;;;;;;10.50;100.00;101631.16;4839037;29;20038;-88
2023/01/06 10:19:13;;;;;;;6.43;5.03;;;;;;;10.64;100.00;101643.81;4834008;29;20038;-83
2023/01/06 10:22:05;;;;;;;9.70;5.30;;;;;;;10.97;100.00;101643.31;4835089;29;20364;-82
2023/01/06 10:24:55;;;;;;;7.43;5.00;;;;;;;11.37;100.00;101641.94;4829704;29;20453;-83
2023/01/06 10:27:20;;;;;;;7.20;4.40;;;;;;;11.28;100.00;101639.38;4826573;29;20528;-83
2023/01/06 10:29:47;;;;;;;7.90;4.80;;;;;;;11.32;100.00;101635.22;4826591;29;20137;-83
2023/01/06 10:32:15;;;;;;;5.37;3.87;;;;;;;11.46;100.00;101641.59;4826517;29;20038;-83
2023/01/06 10:34:45;;;;;;;6.07;3.70;;;;;;;11.59;100.00;101640.00;4826393;29;20041;-88
2023/01/06 10:37:19;;;;;;;9.33;3.63;;;;;;;11.62;100.00;101645.03;4827476;29;20030;-88
2023/01/06 10:39:49;;;;;;;6.43;3.30;;;;;;;11.54;100.00;101640.59;4827226;29;20040;-88
2023/01/06 10:45:17;;;;;;;4.47;2.70;;;;;;;11.42;100.00;101643.03;4825470;29;20117;-88
2023/01/06 10:47:44;;;;;;;6.70;2.53;;;;;;;11.30;100.00;101642.75;4827085;29;20041;-88
2023/01/06 10:50:15;;;;;;;6.20;2.80;;;;;;;11.24;100.00;101640.78;4827530;29;20029;-87
2023/01/06 10:52:41;;;;;;;6.03;3.60;;;;;;;11.26;100.00;101644.16;4825312;29;20475;-87
2023/01/06 10:55:16;;;;;;;5.97;3.20;;;;;;;11.29;100.00;101643.75;4827298;29;20111;-88
2023/01/06 10:57:41;;;;;;;;;;;;;;;11.58;100.00;101632.91;4827982;29;20033;-88
2023/01/06 11:00:14;;;;;;;9.33;2.50;;;;;;;11.25;98.33;101634.34;4826787;29;19929;-91
2023/01/06 11:02:51;;;;;;;5.60;2.07;;;;;;;11.30;98.09;101641.88;4828190;29;20034;-87
2023/01/06 11:05:27;;;;;;;7.17;2.20;;;;;;;11.17;99.72;101634.50;4828600;29;20511;-83
2023/01/06 11:08:05;;;;;;;5.63;2.10;;;;;;;11.17;98.20;101622.81;4824223;29;20203;-83
2023/01/06 11:10:43;;;;;;;7.27;2.33;;;;;;;11.30;96.41;101639.16;4823123;29;20051;-83
2023/01/06 11:13:29;;;;;;;9.83;2.50;;;;;;;11.45;97.48;101633.63;4827707;29;21555;-87
2023/01/06 11:15:55;;;;;;;9.67;2.20;;;;;;;11.30;96.67;101637.31;4826760;29;20479;-87
2023/01/06 11:18:28;;;;;;;4.97;2.23;;;;;;;11.21;97.98;101627.63;4829101;29;20164;-87
2023/01/06 11:21:07;;;;;;;8.50;2.40;;;;;;;11.21;97.49;101638.50;4825200;29;20048;-87
2023/01/06 11:23:33;;;;;;;7.80;2.30;;;;;;;11.11;98.48;101636.13;4828270;29;20041;-87
2023/01/06 11:26:01;;;;;;;7.53;2.43;;;;;;;11.12;100.00;101640.50;4826610;29;20042;-87
2023/01/06 11:28:26;;;;;;;9.47;2.50;;;;;;;11.14;100.00;101646.56;4838376;29;20035;-83
2023/01/06 11:30:57;;;;;;;9.47;2.70;;;;;;;11.20;100.00;101638.69;4825587;29;20081;-83
2023/01/06 11:33:25;;;;;;;5.83;2.30;;;;;;;11.13;99.13;101639.47;4826149;29;20381;-83
2023/01/06 11:35:52;;;;;;;10.40;2.80;;;;;;;11.55;98.48;101634.13;4825603;29;20037;-83
2023/01/06 11:38:19;;;;;;;5.83;2.27;;;;;;;11.91;96.31;101648.53;4824769;29;20033;-83
2023/01/06 11:40:50;;;;;;;7.60;2.60;;;;;;;12.04;96.14;101636.94;4827035;29;20065;-88